createdAt,value
2023-01-23T00:00:11.073Z,21.70
2023-01-23T00:02:38.721Z,21.43
2023-01-23T00:05:07.417Z,22.10
2023-01-23T00:07:36.358Z,21.33
2023-01-23T00:10:03.987Z,20.23
2023-01-23T00:12:31.635Z,21.20
2023-01-23T00:14:59.224Z,22.73
2023-01-23T00:17:27.804Z,21.73
2023-01-23T00:19:56.623Z,21.67
2023-01-23T00:22:24.191Z,21.50
2023-01-23T00:24:53.191Z,22.33
2023-01-23T00:27:20.795Z,22.13
2023-01-23T00:29:49.031Z,21.63
2023-01-23T00:32:16.767Z,20.97
2023-01-23T00:34:44.567Z,20.73
2023-01-23T00:37:12.134Z,21.40
2023-01-23T00:39:39.829Z,21.17
2023-01-23T00:42:08.889Z,21.00
2023-01-23T00:44:36.474Z,21.73
2023-01-23T00:47:04.136Z,21.70
2023-01-23T00:49:31.747Z,22.40
2023-01-23T00:51:59.338Z,21.10
2023-01-23T00:54:27.032Z,21.23
2023-01-23T00:56:54.636Z,22.20
2023-01-23T00:59:23.642Z,22.03
2023-01-23T01:01:51.680Z,21.97
2023-01-23T01:04:19.373Z,22.53
2023-01-23T01:06:46.963Z,22.10
2023-01-23T01:09:15.103Z,23.10
2023-01-23T01:11:42.852Z,22.60
2023-01-23T01:14:10.758Z,23.80
2023-01-23T01:16:45.025Z,24.37
2023-01-23T01:19:12.768Z,23.50
2023-01-23T01:21:41.167Z,23.33
2023-01-23T01:24:09.880Z,23.83
2023-01-23T01:26:37.592Z,23.30
2023-01-23T01:29:05.398Z,23.70
2023-01-23T01:31:33.083Z,23.97
2023-01-23T01:34:02.360Z,22.77
2023-01-23T01:36:30.077Z,23.30
2023-01-23T01:38:57.695Z,23.30
2023-01-23T01:41:25.314Z,24.20
2023-01-23T01:43:56.990Z,24.20
2023-01-23T01:46:26.064Z,22.20
2023-01-23T01:49:04.622Z,23.20
2023-01-23T01:51:35.620Z,22.67
2023-01-23T01:54:08.670Z,23.23
2023-01-23T01:56:40.893Z,23.70
2023-01-23T01:59:10.407Z,23.97
2023-01-23T02:01:39.785Z,23.77
2023-01-23T02:04:10.574Z,24.23
2023-01-23T02:06:38.297Z,25.00
2023-01-23T02:09:10.969Z,23.60
2023-01-23T02:11:38.836Z,23.20
2023-01-23T02:14:06.532Z,22.40
2023-01-23T02:16:40.949Z,22.60
2023-01-23T02:19:28.448Z,23.63
2023-01-23T02:22:02.040Z,22.83
2023-01-23T02:24:37.749Z,24.43
2023-01-23T02:27:06.710Z,24.03
2023-01-23T02:29:44.907Z,26.80
2023-01-23T02:32:12.749Z,23.37
2023-01-23T02:34:41.169Z,23.53
2023-01-23T02:37:10.128Z,23.67
2023-01-23T02:39:39.523Z,22.27
2023-01-23T02:42:09.444Z,22.60
2023-01-23T02:44:37.092Z,23.70
2023-01-23T02:47:07.965Z,24.10
2023-01-23T02:49:35.740Z,23.63
2023-01-23T02:52:03.431Z,25.33
2023-01-23T02:54:31.715Z,24.30
2023-01-23T02:56:59.634Z,23.30
2023-01-23T02:59:45.919Z,24.17
2023-01-23T03:02:14.554Z,25.03
2023-01-23T03:04:42.571Z,24.60
2023-01-23T03:07:10.659Z,23.87
2023-01-23T03:09:38.295Z,24.43
2023-01-23T03:12:06.364Z,24.37
2023-01-23T03:14:35.290Z,24.50
2023-01-23T03:17:02.957Z,23.80
2023-01-23T03:19:31.256Z,24.30
2023-01-23T03:21:59.104Z,24.40
2023-01-23T03:24:26.721Z,24.63
2023-01-23T03:26:54.376Z,24.27
2023-01-23T03:29:41.340Z,25.63
2023-01-23T03:32:11.910Z,24.50
2023-01-23T03:34:41.499Z,25.03
2023-01-23T03:37:10.588Z,25.90
2023-01-23T03:39:55.903Z,25.87
2023-01-23T03:42:23.798Z,25.33
2023-01-23T03:44:52.609Z,25.00
2023-01-23T03:47:21.784Z,25.13
2023-01-23T03:49:49.405Z,24.97
2023-01-23T03:52:17.353Z,26.03
2023-01-23T03:54:44.977Z,26.00
2023-01-23T03:57:12.620Z,26.00
2023-01-23T03:59:40.308Z,25.50
2023-01-23T04:02:08.136Z,25.53
2023-01-23T04:04:37.307Z,26.27
2023-01-23T04:07:05.541Z,27.10
2023-01-23T04:09:33.212Z,26.97
2023-01-23T04:12:01.715Z,28.17
2023-01-23T04:14:35.368Z,27.33
2023-01-23T04:17:03.026Z,28.20
2023-01-23T04:19:30.837Z,28.00
2023-01-23T04:22:00.106Z,26.97
2023-01-23T04:24:27.889Z,26.70
2023-01-23T04:26:55.680Z,26.90
2023-01-23T04:29:23.306Z,26.57
2023-01-23T04:31:51.314Z,26.63
2023-01-23T04:34:18.983Z,27.13
2023-01-23T04:36:46.558Z,26.60
2023-01-23T04:39:15.560Z,26.90
2023-01-23T04:41:43.179Z,26.70
2023-01-23T04:44:24.735Z,28.43
2023-01-23T04:46:54.148Z,28.93
2023-01-23T04:49:22.699Z,27.80
2023-01-23T04:51:51.004Z,29.83
2023-01-23T04:54:21.438Z,28.90
2023-01-23T04:56:49.680Z,29.57
2023-01-23T04:59:17.742Z,29.17
2023-01-23T05:01:46.170Z,30.17
2023-01-23T05:04:13.930Z,28.70
2023-01-23T05:06:41.691Z,29.40
2023-01-23T05:09:09.350Z,29.93
2023-01-23T05:11:38.355Z,29.40
2023-01-23T05:14:06.015Z,28.93
2023-01-23T05:16:33.666Z,29.43
2023-01-23T05:19:01.400Z,29.00
2023-01-23T05:21:29.060Z,29.33
2023-01-23T05:23:56.697Z,29.40
2023-01-23T05:26:24.319Z,29.63
2023-01-23T05:28:53.277Z,28.90
2023-01-23T05:31:21.029Z,29.30
2023-01-23T05:33:48.706Z,29.97
2023-01-23T05:36:18.445Z,29.00
2023-01-23T05:38:46.343Z,30.33
2023-01-23T05:41:14.004Z,30.10
2023-01-23T05:43:41.657Z,28.93
2023-01-23T05:46:11.016Z,29.17
2023-01-23T05:48:38.633Z,28.87
2023-01-23T05:51:06.595Z,28.70
2023-01-23T05:53:34.296Z,29.00
2023-01-23T05:56:06.870Z,29.83
2023-01-23T05:58:34.495Z,28.83
2023-01-23T06:01:03.771Z,28.50
2023-01-23T06:03:32.799Z,30.27
2023-01-23T06:06:01.930Z,30.33
2023-01-23T06:08:29.639Z,29.90
2023-01-23T06:10:59.431Z,30.33
2023-01-23T06:13:27.435Z,31.07
2023-01-23T06:15:55.321Z,31.03
2023-01-23T06:18:23.349Z,30.60
2023-01-23T06:20:58.780Z,30.77
2023-01-23T06:23:26.444Z,31.00
2023-01-23T06:25:54.156Z,30.17
2023-01-23T06:28:21.862Z,29.77
2023-01-23T06:30:49.562Z,29.70
2023-01-23T06:33:17.187Z,30.03
2023-01-23T06:35:44.958Z,29.70
2023-01-23T06:38:13.862Z,30.10
2023-01-23T06:40:41.497Z,30.20
2023-01-23T06:43:09.074Z,30.73
2023-01-23T06:45:36.768Z,29.90
2023-01-23T06:48:04.733Z,30.10
2023-01-23T06:50:32.494Z,30.57
2023-01-23T06:53:00.489Z,30.07
2023-01-23T06:55:29.429Z,31.80
2023-01-23T06:57:57.057Z,31.97
2023-01-23T07:00:24.836Z,30.27
2023-01-23T07:02:54.308Z,30.90
2023-01-23T07:05:22.308Z,30.33
2023-01-23T07:07:52.051Z,30.20
2023-01-23T07:10:20.048Z,29.93
2023-01-23T07:12:49.167Z,29.60
2023-01-23T07:15:17.097Z,32.70
2023-01-23T07:17:44.850Z,29.90
2023-01-23T07:20:14.177Z,30.10
2023-01-23T07:22:42.106Z,30.43
2023-01-23T07:25:10.037Z,28.77
2023-01-23T07:27:37.751Z,29.90
2023-01-23T07:30:07.898Z,31.23
2023-01-23T07:32:35.648Z,29.67
2023-01-23T07:35:03.330Z,30.27
2023-01-23T07:37:30.904Z,29.30
2023-01-23T07:39:58.599Z,30.20
2023-01-23T07:42:26.319Z,30.43
2023-01-23T07:44:54.057Z,30.33
2023-01-23T07:47:23.055Z,30.53
2023-01-23T07:49:51.294Z,29.83
2023-01-23T07:52:18.885Z,31.17
2023-01-23T07:54:46.760Z,29.10
2023-01-23T07:57:14.387Z,31.40
2023-01-23T07:59:41.950Z,30.67
2023-01-23T08:02:10.876Z,31.43
2023-01-23T08:04:39.917Z,31.07
2023-01-23T08:07:07.529Z,30.90
2023-01-23T08:09:35.278Z,30.00
2023-01-23T08:12:02.861Z,30.67
2023-01-23T08:14:30.574Z,30.23
2023-01-23T08:16:58.285Z,29.23
2023-01-23T08:19:27.293Z,28.27
2023-01-23T08:21:56.352Z,29.60
2023-01-23T08:24:24.105Z,28.30
2023-01-23T08:26:51.796Z,30.87
2023-01-23T08:29:19.501Z,29.60
2023-01-23T08:31:47.475Z,28.97
2023-01-23T08:34:15.451Z,29.73
2023-01-23T08:36:43.147Z,29.07
2023-01-23T08:39:12.155Z,29.83
2023-01-23T08:41:39.794Z,29.97
2023-01-23T08:44:07.585Z,29.93
2023-01-23T08:46:35.317Z,29.40
2023-01-23T08:49:03.118Z,28.93
2023-01-23T08:51:30.909Z,28.37
2023-01-23T08:53:59.266Z,28.07
2023-01-23T08:56:28.386Z,28.00
2023-01-23T08:58:56.005Z,28.30
2023-01-23T09:01:25.860Z,28.63
2023-01-23T09:03:53.971Z,28.50
2023-01-23T09:06:23.254Z,28.93
2023-01-23T09:08:51.261Z,30.20
2023-01-23T09:11:19.809Z,29.97
2023-01-23T09:13:48.974Z,29.00
2023-01-23T09:16:17.983Z,29.60
2023-01-23T09:18:45.651Z,30.13
2023-01-23T09:21:17.161Z,29.80
2023-01-23T09:23:45.307Z,28.97
2023-01-23T09:26:15.473Z,30.33
2023-01-23T09:28:44.113Z,30.03
2023-01-23T09:31:15.196Z,29.77
2023-01-23T09:33:43.362Z,30.50
2023-01-23T09:36:11.881Z,30.87
2023-01-23T09:38:39.488Z,30.20
2023-01-23T09:41:15.272Z,30.53
2023-01-23T09:43:48.820Z,30.50
2023-01-23T09:46:22.606Z,29.10
2023-01-23T09:48:55.835Z,30.13
2023-01-23T09:51:28.275Z,29.40
2023-01-23T09:54:01.298Z,30.10
2023-01-23T09:56:32.306Z,31.37
2023-01-23T09:59:07.204Z,33.47
2023-01-23T10:01:37.492Z,31.07
2023-01-23T10:04:06.531Z,30.20
2023-01-23T10:06:51.135Z,29.50
2023-01-23T10:09:36.582Z,29.73
2023-01-23T10:12:12.552Z,28.27
2023-01-23T10:14:53.081Z,29.70
2023-01-23T10:17:30.795Z,28.67
2023-01-23T10:20:18.684Z,27.50
2023-01-23T10:22:56.674Z,28.37
2023-01-23T10:25:27.618Z,27.90
2023-01-23T10:28:01.950Z,29.13
2023-01-23T10:30:33.341Z,28.37
2023-01-23T10:33:10.541Z,29.73
2023-01-23T10:35:50.517Z,27.60
2023-01-23T10:38:38.622Z,27.13
2023-01-23T10:41:21.182Z,28.50
2023-01-23T10:43:53.230Z,30.00
2023-01-23T10:46:22.935Z,29.87
2023-01-23T10:48:53.490Z,29.27
2023-01-23T10:51:36.718Z,29.47
2023-01-23T10:54:07.250Z,28.10
2023-01-23T10:56:40.385Z,28.50
2023-01-23T10:59:20.008Z,27.20
2023-01-23T11:01:57.757Z,28.37
2023-01-23T11:04:29.153Z,25.80
2023-01-23T11:07:10.465Z,26.47
2023-01-23T11:09:50.999Z,26.70
2023-01-23T11:12:21.605Z,27.37
2023-01-23T11:14:49.511Z,25.70
2023-01-23T11:17:21.259Z,25.70
2023-01-23T11:19:53.559Z,26.00
2023-01-23T11:22:33.370Z,26.60
2023-01-23T11:25:01.430Z,25.80
2023-01-23T11:27:31.215Z,24.80
2023-01-23T11:30:32.427Z,24.80
2023-01-23T11:33:05.312Z,25.40
2023-01-23T11:35:52.090Z,24.80
2023-01-23T11:38:30.562Z,27.27
2023-01-23T11:40:58.806Z,27.00
2023-01-23T11:43:26.621Z,25.33
2023-01-23T11:46:11.471Z,24.60
2023-01-23T11:49:00.098Z,25.57
2023-01-23T11:51:37.516Z,26.97
2023-01-23T11:54:36.473Z,29.30
2023-01-23T11:57:12.620Z,26.90
2023-01-23T11:59:57.075Z,26.60
2023-01-23T12:02:58.529Z,26.97
2023-01-23T12:05:49.930Z,25.80
2023-01-23T12:08:31.927Z,25.73
2023-01-23T12:11:12.990Z,26.50
2023-01-23T12:13:54.366Z,27.30
2023-01-23T12:16:28.832Z,26.40
2023-01-23T12:19:13.001Z,27.40
2023-01-23T12:21:50.611Z,25.97
2023-01-23T12:24:35.402Z,25.90
2023-01-23T12:27:13.681Z,26.47
2023-01-23T12:30:00.585Z,25.83
2023-01-23T12:32:46.052Z,25.37
2023-01-23T12:35:27.640Z,26.00
2023-01-23T12:38:11.659Z,26.40
2023-01-23T12:40:45.893Z,26.57
2023-01-23T12:43:19.003Z,26.90
2023-01-23T12:45:51.932Z,26.93
2023-01-23T12:48:28.791Z,26.37
2023-01-23T12:51:02.101Z,25.70
2023-01-23T12:53:34.308Z,26.07
2023-01-23T12:56:07.949Z,27.90
2023-01-23T12:58:37.377Z,27.43
2023-01-23T13:01:31.166Z,25.73
2023-01-23T13:04:14.409Z,27.70
2023-01-23T13:06:58.856Z,25.90
2023-01-23T13:09:38.144Z,26.67
2023-01-23T13:12:22.387Z,27.47
2023-01-23T13:15:14.267Z,26.30
2023-01-23T13:17:45.167Z,27.20
2023-01-23T13:20:46.389Z,26.93
2023-01-23T13:23:29.223Z,26.50
2023-01-23T13:26:31.358Z,25.30
2023-01-23T13:29:07.487Z,27.70
2023-01-23T13:31:45.028Z,27.30
2023-01-23T13:34:39.480Z,27.23
2023-01-23T13:37:54.179Z,29.40
2023-01-23T13:40:24.455Z,25.93
2023-01-23T13:42:52.351Z,27.33
2023-01-23T13:45:30.424Z,25.80
2023-01-23T14:21:58.702Z,27.70
2023-01-23T14:24:29.235Z,30.73
2023-01-23T14:27:07.378Z,29.60
2023-01-23T14:29:35.922Z,32.30
2023-01-23T14:32:03.719Z,30.23
2023-01-23T14:34:40.218Z,28.83
2023-01-23T14:37:12.787Z,28.70
2023-01-23T14:39:44.032Z,27.83
2023-01-23T14:42:24.560Z,30.20
2023-01-23T14:44:53.142Z,28.20
2023-01-23T14:47:29.460Z,29.10
2023-01-23T14:50:01.232Z,28.03
2023-01-23T14:52:31.307Z,27.30
2023-01-23T14:55:05.807Z,27.80
2023-01-23T14:57:37.543Z,33.40
2023-01-23T15:00:06.088Z,34.33
2023-01-23T15:02:35.330Z,30.93
2023-01-23T15:05:19.105Z,29.30
2023-01-23T15:07:50.239Z,28.13
2023-01-23T15:10:20.870Z,27.50
2023-01-23T15:12:51.093Z,27.70
2023-01-23T15:15:21.190Z,28.03
2023-01-23T15:17:49.804Z,30.33
2023-01-23T15:20:42.734Z,26.93
2023-01-23T15:23:28.565Z,26.80
2023-01-23T15:26:24.530Z,26.13
2023-01-23T15:28:54.508Z,27.23
2023-01-23T15:31:29.441Z,27.63
2023-01-23T15:34:11.317Z,30.00
2023-01-23T15:36:41.339Z,27.03
2023-01-23T15:39:19.004Z,24.13
2023-01-23T15:41:50.328Z,24.90
2023-01-23T15:44:20.026Z,22.40
2023-01-23T15:46:47.776Z,22.53
2023-01-23T15:49:25.015Z,23.77
2023-01-23T15:51:56.687Z,24.43
2023-01-23T15:54:28.941Z,26.23
2023-01-23T15:57:06.917Z,24.83
2023-01-23T15:59:36.284Z,24.80
2023-01-23T16:02:04.248Z,24.17
2023-01-23T16:04:31.876Z,25.63
2023-01-23T16:07:04.280Z,24.77
2023-01-23T16:09:34.876Z,26.30
2023-01-23T16:12:03.836Z,29.33
2023-01-23T16:14:31.591Z,31.03
2023-01-23T16:17:11.454Z,35.27
2023-01-23T16:19:43.833Z,33.47
2023-01-23T16:22:15.856Z,28.20
2023-01-23T16:24:44.016Z,30.70
2023-01-23T16:27:17.992Z,31.33
2023-01-23T16:29:46.182Z,27.80
2023-01-23T16:32:13.926Z,26.47
2023-01-23T16:34:41.626Z,26.90
2023-01-23T16:37:16.614Z,27.47
2023-01-23T16:39:46.674Z,27.87
2023-01-23T16:42:23.291Z,29.10
2023-01-23T16:44:51.095Z,35.30
2023-01-23T16:47:18.847Z,25.57
2023-01-23T16:49:54.426Z,24.13
2023-01-23T16:52:26.409Z,26.10
2023-01-23T16:54:55.269Z,24.00
2023-01-23T16:57:23.579Z,25.57
2023-01-23T16:59:52.695Z,25.50
2023-01-23T17:02:22.908Z,34.43
2023-01-23T17:04:50.810Z,38.10
2023-01-23T17:07:19.963Z,30.00
2023-01-23T17:09:49.194Z,29.30
2023-01-23T17:12:20.901Z,27.80
2023-01-23T17:14:50.094Z,27.90
2023-01-23T17:17:25.772Z,26.33
2023-01-23T17:19:55.044Z,25.33
2023-01-23T17:22:24.980Z,27.13
2023-01-23T17:24:54.267Z,26.93
2023-01-23T17:27:21.916Z,26.53
2023-01-23T17:29:49.942Z,26.20
2023-01-23T17:32:27.884Z,26.33
2023-01-23T17:34:55.571Z,25.23
2023-01-23T17:37:24.108Z,26.80
2023-01-23T17:39:51.985Z,26.70
2023-01-23T17:42:21.971Z,25.63
2023-01-23T17:44:50.112Z,26.10
2023-01-23T17:47:18.257Z,25.87
2023-01-23T17:49:51.148Z,27.20
2023-01-23T17:52:20.374Z,26.17
2023-01-23T17:54:48.106Z,23.20
2023-01-23T17:57:16.088Z,24.70
2023-01-23T17:59:45.240Z,21.80
2023-01-23T18:02:25.458Z,22.33
2023-01-23T18:04:53.140Z,21.07
2023-01-23T18:07:20.817Z,23.73
2023-01-23T18:09:48.441Z,22.67
2023-01-23T18:12:22.532Z,22.40
2023-01-23T18:14:57.356Z,22.53
2023-01-23T18:17:34.266Z,21.70
2023-01-23T18:20:02.591Z,22.70
2023-01-23T18:22:30.634Z,22.80
2023-01-23T18:24:59.536Z,24.73
2023-01-23T18:27:27.694Z,24.83
2023-01-23T18:30:18.621Z,25.80
2023-01-23T18:33:02.105Z,25.93
2023-01-23T18:35:55.465Z,24.20
2023-01-23T18:38:33.871Z,24.03
2023-01-23T18:41:15.079Z,24.93
2023-01-23T18:43:45.657Z,24.40
2023-01-23T18:46:16.603Z,27.33
2023-01-23T18:48:46.924Z,28.10
2023-01-23T18:51:28.229Z,23.67
2023-01-23T18:54:03.584Z,24.20
2023-01-23T18:56:39.408Z,22.87
2023-01-23T18:59:20.124Z,24.27
2023-01-23T19:01:54.247Z,25.17
2023-01-23T19:04:31.407Z,24.60
2023-01-23T19:06:59.726Z,25.30
2023-01-23T19:09:28.791Z,24.23
2023-01-23T19:12:24.960Z,25.73
2023-01-23T19:15:20.228Z,26.47
2023-01-23T19:17:55.042Z,27.73
2023-01-23T19:20:29.730Z,26.90
2023-01-23T19:23:12.128Z,27.27
2023-01-23T19:25:40.286Z,26.83
2023-01-23T19:28:11.639Z,26.03
2023-01-23T19:30:39.764Z,24.53
2023-01-23T19:33:13.240Z,23.60
2023-01-23T19:35:40.836Z,22.67
2023-01-23T19:38:08.455Z,23.50
2023-01-23T19:40:36.166Z,21.40
2023-01-23T19:43:14.096Z,23.97
2023-01-23T19:45:42.701Z,24.50
2023-01-23T19:48:12.313Z,25.23
2023-01-23T19:50:40.344Z,25.33
2023-01-23T19:53:08.327Z,26.33
2023-01-23T19:55:38.217Z,25.67
2023-01-23T19:58:06.323Z,25.23
2023-01-23T20:00:36.056Z,26.30
2023-01-23T20:03:04.820Z,25.03
2023-01-23T20:05:33.925Z,25.47
2023-01-23T20:08:02.061Z,26.00
2023-01-23T20:10:29.681Z,26.47
2023-01-23T20:12:57.385Z,26.87
2023-01-23T20:15:26.883Z,24.27
2023-01-23T20:17:55.056Z,24.60
2023-01-23T20:20:23.516Z,23.73
2023-01-23T20:22:52.706Z,22.43
2023-01-23T20:25:21.245Z,22.10
2023-01-23T20:27:49.040Z,23.00
2023-01-23T20:30:19.691Z,23.87
2023-01-23T20:32:47.531Z,24.60
2023-01-23T20:35:15.148Z,23.97
2023-01-23T20:37:42.807Z,24.17
2023-01-23T20:40:12.584Z,23.17
2023-01-23T20:42:40.818Z,25.10
2023-01-23T20:45:09.666Z,26.10
2023-01-23T20:47:37.694Z,22.60
2023-01-23T20:50:05.894Z,23.50
2023-01-23T20:52:51.124Z,23.90
2023-01-23T20:55:20.624Z,22.83
2023-01-23T20:58:05.749Z,21.83
2023-01-23T21:00:33.442Z,21.63
2023-01-23T21:03:01.051Z,22.23
2023-01-23T21:05:28.743Z,22.30
2023-01-23T21:07:56.505Z,22.20
2023-01-23T21:10:25.521Z,23.70
2023-01-23T21:12:53.176Z,23.03
2023-01-23T21:15:21.007Z,23.27
2023-01-23T21:17:48.864Z,23.43
2023-01-23T21:20:17.143Z,25.13
2023-01-23T21:22:44.694Z,23.90
2023-01-23T21:25:13.062Z,23.13
2023-01-23T21:27:42.026Z,21.73
2023-01-23T21:30:11.014Z,21.13
2023-01-23T21:32:38.639Z,20.17
2023-01-23T21:35:07.025Z,22.10
2023-01-23T21:37:34.694Z,22.90
2023-01-23T21:40:02.388Z,23.07
2023-01-23T21:42:30.017Z,22.07
2023-01-23T21:44:59.189Z,24.00
2023-01-23T21:47:26.786Z,23.80
2023-01-23T21:49:54.442Z,23.60
2023-01-23T21:52:22.134Z,24.50
2023-01-23T21:54:49.742Z,26.03
2023-01-23T21:57:17.313Z,25.90
2023-01-23T22:00:05.187Z,24.23
2023-01-23T22:02:33.239Z,25.70
2023-01-23T22:05:00.930Z,24.30
2023-01-23T22:07:28.632Z,25.37
2023-01-23T22:09:56.214Z,23.97
2023-01-23T22:12:23.976Z,22.67
2023-01-23T22:14:51.613Z,22.43
2023-01-23T22:17:19.324Z,22.50
2023-01-23T22:19:48.284Z,22.03
2023-01-23T22:22:16.341Z,23.23
2023-01-23T22:24:43.922Z,22.27
2023-01-23T22:27:11.565Z,23.27
2023-01-23T22:29:39.135Z,21.20
2023-01-23T22:32:06.801Z,22.23
2023-01-23T22:34:34.490Z,25.07
2023-01-23T22:37:03.502Z,25.50
2023-01-23T22:39:31.255Z,21.53
2023-01-23T22:41:58.850Z,22.10
2023-01-23T22:44:26.458Z,22.50
2023-01-23T22:46:54.417Z,22.37
2023-01-23T22:49:22.393Z,22.57
2023-01-23T22:51:51.549Z,21.67
2023-01-23T22:54:20.506Z,23.23
2023-01-23T22:56:48.081Z,22.10
2023-01-23T22:59:15.659Z,21.93
2023-01-23T23:01:43.511Z,23.53
2023-01-23T23:04:11.099Z,22.07
2023-01-23T23:06:38.878Z,22.07
2023-01-23T23:09:06.512Z,20.63
2023-01-23T23:11:36.943Z,21.07
2023-01-23T23:14:04.624Z,19.57
2023-01-23T23:16:32.905Z,22.00
2023-01-23T23:19:02.707Z,20.20
2023-01-23T23:21:34.246Z,20.50
2023-01-23T23:24:02.290Z,20.87
2023-01-23T23:26:31.373Z,20.13
2023-01-23T23:29:01.499Z,20.50
2023-01-23T23:31:29.625Z,21.10
2023-01-23T23:33:57.514Z,22.93
2023-01-23T23:36:25.407Z,21.47
2023-01-23T23:38:53.145Z,21.27
2023-01-23T23:41:20.864Z,22.17
2023-01-23T23:43:48.470Z,21.77
2023-01-23T23:46:17.735Z,23.20
2023-01-23T23:48:46.167Z,21.50
2023-01-23T23:51:16.517Z,19.93
2023-01-23T23:53:44.221Z,21.67
2023-01-23T23:56:19.613Z,20.47
2023-01-23T23:58:47.274Z,22.50
